createdAt,value
2023-08-11T00:02:53.421Z,2.08
2023-08-11T00:07:52.215Z,3.17
2023-08-11T00:12:44.176Z,2.33
2023-08-11T00:17:35.961Z,2.97
2023-08-11T00:22:27.753Z,2.60
2023-08-11T00:27:21.179Z,3.40
2023-08-11T00:32:13.028Z,2.95
2023-08-11T00:37:05.477Z,2.63
2023-08-11T00:41:57.392Z,2.58
2023-08-11T00:46:49.301Z,2.65
2023-08-11T00:51:42.422Z,2.55
2023-08-11T00:56:35.069Z,2.55
2023-08-11T01:01:29.689Z,2.78
2023-08-11T01:06:40.947Z,2.70
2023-08-11T01:11:45.967Z,3.95
2023-08-11T01:16:37.932Z,5.57
2023-08-11T01:21:35.759Z,3.45
2023-08-11T01:26:28.210Z,3.83
2023-08-11T01:31:21.373Z,3.38
2023-08-11T01:36:16.076Z,3.50
2023-08-11T01:41:07.950Z,3.00
2023-08-11T01:45:59.796Z,3.80
2023-08-11T01:50:51.608Z,3.00
2023-08-11T01:55:44.308Z,3.13
2023-08-11T02:00:36.196Z,3.15
2023-08-11T02:05:28.067Z,2.75
2023-08-11T02:10:19.851Z,3.08
2023-08-11T02:15:12.191Z,3.00
2023-08-11T02:20:23.567Z,3.40
2023-08-11T02:25:16.648Z,3.13
2023-08-11T02:30:12.307Z,2.80
2023-08-11T02:35:04.821Z,3.30
2023-08-11T02:39:56.648Z,3.00
2023-08-11T02:44:48.460Z,3.28
2023-08-11T02:49:40.256Z,3.20
2023-08-11T02:54:32.340Z,3.20
2023-08-11T02:59:24.187Z,3.45
2023-08-11T03:04:17.641Z,3.03
2023-08-11T03:09:11.288Z,3.47
2023-08-11T03:14:03.394Z,3.65
2023-08-11T03:18:55.302Z,3.47
2023-08-11T03:23:47.281Z,3.28
2023-08-11T03:28:39.200Z,3.95
2023-08-11T03:33:31.485Z,3.90
2023-08-11T03:38:31.795Z,3.63
2023-08-11T03:43:23.661Z,3.47
2023-08-11T03:48:15.485Z,3.88
2023-08-11T03:53:08.370Z,3.72
2023-08-11T03:58:01.687Z,3.75
2023-08-11T04:02:55.332Z,3.88
2023-08-11T04:07:47.336Z,3.90
2023-08-11T04:12:39.708Z,4.05
2023-08-11T04:17:34.950Z,4.47
2023-08-11T04:22:37.281Z,4.45
2023-08-11T04:27:30.992Z,5.78
2023-08-11T04:32:22.814Z,11.77
2023-08-11T04:37:14.633Z,8.43
2023-08-11T04:42:06.900Z,8.10
2023-08-11T04:46:58.960Z,9.07
2023-08-11T04:51:51.421Z,10.10
2023-08-11T04:56:44.349Z,10.40
2023-08-11T05:01:36.589Z,11.80
2023-08-11T05:06:28.388Z,11.98
2023-08-11T05:11:20.186Z,12.15
2023-08-11T05:16:11.981Z,11.95
2023-08-11T05:21:06.971Z,9.80
2023-08-11T05:25:58.744Z,7.95
2023-08-11T05:30:51.112Z,6.93
2023-08-11T05:35:42.929Z,7.18
2023-08-11T05:40:34.713Z,7.57
2023-08-11T05:45:26.540Z,7.00
2023-08-11T05:50:18.730Z,7.00
2023-08-11T05:55:10.766Z,6.55
2023-08-11T06:00:04.645Z,6.40
2023-08-11T06:05:05.156Z,5.70
2023-08-11T06:09:57.003Z,6.90
2023-08-11T06:14:48.799Z,5.75
2023-08-11T06:19:40.559Z,6.47
2023-08-11T06:24:32.347Z,7.15
2023-08-11T06:29:24.335Z,6.25
2023-08-11T06:34:18.648Z,6.53
2023-08-11T06:39:12.010Z,5.57
2023-08-11T06:44:04.034Z,6.97
2023-08-11T06:48:55.808Z,6.60
2023-08-11T06:53:47.692Z,6.22
2023-08-11T06:58:39.491Z,6.03
2023-08-11T07:03:32.011Z,7.20
2023-08-11T07:08:24.088Z,6.82
2023-08-11T07:13:16.051Z,6.28
2023-08-11T07:18:08.006Z,5.68
2023-08-11T07:22:59.832Z,5.10
2023-08-11T07:27:51.712Z,5.70
2023-08-11T07:32:43.604Z,4.55
2023-08-11T07:37:35.480Z,4.50
2023-08-11T07:42:27.442Z,4.18
2023-08-11T07:47:19.239Z,3.83
2023-08-11T07:52:11.052Z,4.65
2023-08-11T07:57:02.899Z,4.63
2023-08-11T08:01:54.755Z,4.35
2023-08-11T08:06:46.975Z,3.88
2023-08-11T08:11:44.115Z,4.05
2023-08-11T08:16:36.060Z,3.55
2023-08-11T08:21:27.914Z,3.47
2023-08-11T08:26:19.707Z,3.60
2023-08-11T08:31:11.542Z,3.58
2023-08-11T08:36:03.821Z,3.58
2023-08-11T08:40:56.399Z,3.05
2023-08-11T08:45:52.172Z,2.80
2023-08-11T08:50:44.031Z,2.70
2023-08-11T08:55:36.022Z,3.00
2023-08-11T09:00:27.899Z,2.70
2023-08-11T09:05:20.034Z,2.88
2023-08-11T09:10:11.872Z,2.03
2023-08-11T09:15:10.964Z,2.58
2023-08-11T09:20:04.242Z,2.53
2023-08-11T09:24:57.119Z,2.50
2023-08-11T09:29:50.994Z,2.92
2023-08-11T09:34:45.058Z,2.45
2023-08-11T09:39:37.893Z,3.83
2023-08-11T09:44:29.932Z,3.80
2023-08-11T09:49:21.743Z,3.10
2023-08-11T09:54:15.650Z,3.42
2023-08-11T09:59:12.021Z,3.60
2023-08-11T10:04:11.970Z,2.95
2023-08-11T10:09:06.196Z,3.72
2023-08-11T10:13:58.352Z,3.30
2023-08-11T10:18:50.770Z,2.88
2023-08-11T10:23:42.705Z,3.20
2023-08-11T10:28:35.292Z,3.40
2023-08-11T10:33:31.223Z,3.08
2023-08-11T10:38:31.148Z,2.97
2023-08-11T10:43:30.413Z,2.58
2023-08-11T10:48:24.415Z,3.65
2023-08-11T10:53:21.058Z,2.70
2023-08-11T10:58:13.592Z,2.88
2023-08-11T11:03:05.932Z,3.13
2023-08-11T11:07:57.767Z,3.20
2023-08-11T11:12:49.683Z,2.75
2023-08-11T11:17:42.029Z,2.65
2023-08-11T11:22:33.894Z,3.17
2023-08-11T11:27:25.674Z,3.10
2023-08-11T11:32:18.266Z,3.40
2023-08-11T11:37:10.656Z,2.70
2023-08-11T11:42:08.065Z,3.25
2023-08-11T11:47:00.129Z,2.85
2023-08-11T11:51:52.492Z,3.33
2023-08-11T11:56:54.232Z,3.20
2023-08-11T12:01:59.320Z,3.13
2023-08-11T12:06:51.088Z,3.38
2023-08-11T12:11:43.126Z,3.42
2023-08-11T12:16:36.320Z,3.00
2023-08-11T12:21:29.314Z,2.90
2023-08-11T12:26:21.130Z,2.80
2023-08-11T12:31:14.122Z,3.30
2023-08-11T12:36:06.404Z,3.13
2023-08-11T12:40:58.789Z,3.72
2023-08-11T12:45:50.998Z,2.70
2023-08-11T12:50:43.189Z,2.78
2023-08-11T12:55:36.298Z,3.20
2023-08-11T13:00:28.508Z,3.05
2023-08-11T13:05:20.495Z,2.80
2023-08-11T13:10:12.454Z,2.80
2023-08-11T13:15:05.701Z,3.00
2023-08-11T13:19:57.593Z,2.88
2023-08-11T13:24:49.342Z,3.03
2023-08-11T13:29:41.172Z,3.40
2023-08-11T13:34:32.972Z,2.92
2023-08-11T13:39:24.833Z,2.88
2023-08-11T13:44:16.854Z,3.70
2023-08-11T13:49:08.677Z,3.08
2023-08-11T13:54:04.994Z,2.97
2023-08-11T13:58:56.800Z,3.03
2023-08-11T14:03:48.853Z,3.10
2023-08-11T14:08:41.019Z,2.85
2023-08-11T14:13:33.108Z,2.88
2023-08-11T14:18:46.402Z,3.00
2023-08-11T14:23:38.284Z,3.13
2023-08-11T14:28:30.129Z,3.08
2023-08-11T14:33:21.907Z,2.78
2023-08-11T14:38:13.908Z,2.65
2023-08-11T14:43:05.851Z,3.20
2023-08-11T14:47:58.039Z,2.80
2023-08-11T14:52:49.849Z,2.67
2023-08-11T14:57:41.808Z,2.90
2023-08-11T15:02:33.703Z,2.58
2023-08-11T15:07:25.618Z,3.00
2023-08-11T15:12:17.411Z,2.88
2023-08-11T15:17:09.186Z,2.38
2023-08-11T15:22:01.094Z,2.92
2023-08-11T15:26:52.937Z,2.58
2023-08-11T15:31:44.794Z,2.80
2023-08-11T15:36:36.690Z,2.67
2023-08-11T15:41:28.498Z,2.95
2023-08-11T15:46:20.386Z,2.90
2023-08-11T15:51:12.244Z,2.88
2023-08-11T15:56:04.527Z,2.50
2023-08-11T16:00:57.456Z,2.67
2023-08-11T16:05:49.326Z,2.83
2023-08-11T16:10:41.161Z,3.15
2023-08-11T16:15:33.016Z,3.05
2023-08-11T16:20:24.808Z,2.90
2023-08-11T16:25:16.581Z,2.70
2023-08-11T16:30:11.442Z,3.58
2023-08-11T16:35:03.405Z,3.20
2023-08-11T16:39:55.181Z,2.80
2023-08-11T16:44:47.092Z,2.83
2023-08-11T16:49:38.857Z,2.65
2023-08-11T16:54:33.578Z,3.22
2023-08-11T16:59:25.697Z,3.03
2023-08-11T17:04:17.600Z,3.03
2023-08-11T17:09:09.451Z,2.90
2023-08-11T17:14:01.262Z,2.80
2023-08-11T17:18:53.103Z,2.60
2023-08-11T17:23:45.004Z,2.78
2023-08-11T17:28:36.779Z,3.20
2023-08-11T17:33:28.619Z,2.90
2023-08-11T17:38:20.481Z,2.55
2023-08-11T17:43:12.261Z,2.95
2023-08-11T17:48:04.365Z,2.95
2023-08-11T17:52:56.190Z,3.22
2023-08-11T17:57:48.120Z,2.95
2023-08-11T18:02:40.132Z,2.60
2023-08-11T18:07:31.955Z,2.75
2023-08-11T18:12:26.108Z,3.50
2023-08-11T18:17:17.863Z,2.95
2023-08-11T18:22:09.852Z,2.75
2023-08-11T18:27:01.843Z,3.00
2023-08-11T18:31:53.583Z,2.92
2023-08-11T18:36:45.351Z,3.05
2023-08-11T18:41:37.181Z,3.15
2023-08-11T18:46:29.016Z,2.90
2023-08-11T18:51:20.794Z,3.47
2023-08-11T18:56:12.564Z,3.05
2023-08-11T19:01:04.456Z,3.13
2023-08-11T19:05:59.406Z,3.50
2023-08-11T19:10:51.174Z,4.10
2023-08-11T19:15:47.563Z,3.78
2023-08-11T19:20:39.421Z,3.53
2023-08-11T19:25:31.237Z,3.50
2023-08-11T19:30:23.041Z,3.78
2023-08-11T19:35:14.877Z,3.65
2023-08-11T19:40:07.243Z,3.80
2023-08-11T19:44:59.036Z,2.83
2023-08-11T19:49:51.187Z,3.45
2023-08-11T19:54:42.981Z,4.47
2023-08-11T19:59:34.722Z,3.58
2023-08-11T20:04:26.624Z,3.50
2023-08-11T20:09:20.457Z,3.95
2023-08-11T20:14:12.233Z,4.30
2023-08-11T20:19:04.257Z,4.00
2023-08-11T20:23:56.038Z,4.47
2023-08-11T20:28:48.176Z,4.05
2023-08-11T20:33:39.953Z,3.95
2023-08-11T20:38:31.743Z,4.00
2023-08-11T20:43:23.670Z,3.90
2023-08-11T20:48:15.535Z,3.88
2023-08-11T20:53:07.317Z,4.13
2023-08-11T20:57:59.045Z,3.92
2023-08-11T21:02:50.838Z,4.80
2023-08-11T21:07:43.012Z,4.10
2023-08-11T21:12:34.917Z,4.43
2023-08-11T21:17:26.822Z,4.60
2023-08-11T21:22:18.614Z,4.10
2023-08-11T21:27:10.854Z,4.07
2023-08-11T21:32:03.256Z,3.40
2023-08-11T21:36:55.050Z,3.70
2023-08-11T21:41:47.097Z,3.45
2023-08-11T21:46:38.943Z,3.33
2023-08-11T21:51:30.727Z,3.58
2023-08-11T21:56:22.487Z,3.00
2023-08-11T22:01:14.583Z,3.65
2023-08-11T22:06:06.635Z,3.50
2023-08-11T22:10:58.459Z,3.53
2023-08-11T22:15:51.126Z,3.22
2023-08-11T22:20:44.059Z,3.40
2023-08-11T22:25:35.848Z,3.50
2023-08-11T22:30:27.664Z,3.67
2023-08-11T22:35:19.578Z,3.88
2023-08-11T22:40:11.722Z,3.20
2023-08-11T22:45:03.809Z,3.65
2023-08-11T22:49:56.836Z,3.88
2023-08-11T22:54:48.722Z,3.67
2023-08-11T22:59:41.657Z,3.80
2023-08-11T23:04:33.525Z,3.47
2023-08-11T23:09:26.644Z,3.78
2023-08-11T23:14:19.847Z,3.50
2023-08-11T23:19:11.685Z,3.70
2023-08-11T23:24:03.641Z,3.88
2023-08-11T23:28:55.426Z,4.00
2023-08-11T23:33:47.582Z,4.55
2023-08-11T23:38:39.458Z,3.70
2023-08-11T23:43:31.366Z,4.72
2023-08-11T23:48:23.260Z,4.55
2023-08-11T23:53:15.277Z,5.22
2023-08-11T23:58:07.055Z,5.25
